sensor_id;sensor_type;location;lat;lon;timestamp;temperature;humidity
23311;DHT22;11828;51.508;18.118;2022-12-29T00:00:07;20.80;32.30
23311;DHT22;11828;51.508;18.118;2022-12-29T00:02:55;20.70;32.30
23311;DHT22;11828;51.508;18.118;2022-12-29T00:05:21;20.70;32.30
23311;DHT22;11828;51.508;18.118;2022-12-29T00:07:47;20.60;32.40
23311;DHT22;11828;51.508;18.118;2022-12-29T00:10:14;20.70;32.50
23311;DHT22;11828;51.508;18.118;2022-12-29T00:12:40;20.60;32.60
23311;DHT22;11828;51.508;18.118;2022-12-29T00:15:25;20.60;32.60
23311;DHT22;11828;51.508;18.118;2022-12-29T00:18:03;20.60;32.50
23311;DHT22;11828;51.508;18.118;2022-12-29T00:20:29;20.70;32.50
23311;DHT22;11828;51.508;18.118;2022-12-29T00:23:17;20.80;32.50
23311;DHT22;11828;51.508;18.118;2022-12-29T00:26:03;20.80;32.30
23311;DHT22;11828;51.508;18.118;2022-12-29T00:28:50;20.80;32.30
23311;DHT22;11828;51.508;18.118;2022-12-29T00:31:34;20.80;32.20
23311;DHT22;11828;51.508;18.118;2022-12-29T00:34:19;20.80;32.40
23311;DHT22;11828;51.508;18.118;2022-12-29T00:37:03;20.60;32.40
23311;DHT22;11828;51.508;18.118;2022-12-29T00:39:29;20.60;32.50
23311;DHT22;11828;51.508;18.118;2022-12-29T00:42:14;20.40;32.70
23311;DHT22;11828;51.508;18.118;2022-12-29T00:45:04;20.40;32.80
23311;DHT22;11828;51.508;18.118;2022-12-29T00:47:30;20.40;32.60
23311;DHT22;11828;51.508;18.118;2022-12-29T00:49:57;20.30;32.50
23311;DHT22;11828;51.508;18.118;2022-12-29T00:52:23;20.20;32.80
23311;DHT22;11828;51.508;18.118;2022-12-29T00:54:49;20.20;32.90
23311;DHT22;11828;51.508;18.118;2022-12-29T00:57:15;20.10;33.00
23311;DHT22;11828;51.508;18.118;2022-12-29T00:59:42;20.20;32.90
23311;DHT22;11828;51.508;18.118;2022-12-29T01:02:09;20.20;32.90
23311;DHT22;11828;51.508;18.118;2022-12-29T01:04:36;20.30;32.80
23311;DHT22;11828;51.508;18.118;2022-12-29T01:07:02;20.30;32.60
23311;DHT22;11828;51.508;18.118;2022-12-29T01:09:29;20.10;32.80
23311;DHT22;11828;51.508;18.118;2022-12-29T01:12:14;20.10;32.80
23311;DHT22;11828;51.508;18.118;2022-12-29T01:14:40;20.20;32.80
23311;DHT22;11828;51.508;18.118;2022-12-29T01:17:06;20.20;32.80
23311;DHT22;11828;51.508;18.118;2022-12-29T01:19:32;20.10;32.60
23311;DHT22;11828;51.508;18.118;2022-12-29T01:21:58;20.30;32.70
23311;DHT22;11828;51.508;18.118;2022-12-29T01:24:25;20.30;32.50
23311;DHT22;11828;51.508;18.118;2022-12-29T01:26:51;20.00;32.70
23311;DHT22;11828;51.508;18.118;2022-12-29T01:29:20;19.90;32.90
23311;DHT22;11828;51.508;18.118;2022-12-29T01:31:46;19.80;33.00
23311;DHT22;11828;51.508;18.118;2022-12-29T01:34:12;19.90;33.00
23311;DHT22;11828;51.508;18.118;2022-12-29T01:36:38;19.90;33.00
23311;DHT22;11828;51.508;18.118;2022-12-29T01:39:05;20.00;32.80
23311;DHT22;11828;51.508;18.118;2022-12-29T01:41:31;20.00;32.70
23311;DHT22;11828;51.508;18.118;2022-12-29T01:43:58;20.00;32.70
23311;DHT22;11828;51.508;18.118;2022-12-29T01:46:43;19.90;32.60
23311;DHT22;11828;51.508;18.118;2022-12-29T01:49:22;20.00;32.70
23311;DHT22;11828;51.508;18.118;2022-12-29T01:51:58;19.90;32.70
23311;DHT22;11828;51.508;18.118;2022-12-29T01:54:54;20.10;32.80
23311;DHT22;11828;51.508;18.118;2022-12-29T01:57:25;20.10;32.60
23311;DHT22;11828;51.508;18.118;2022-12-29T02:00:01;19.90;32.60
23311;DHT22;11828;51.508;18.118;2022-12-29T02:02:31;20.10;32.60
23311;DHT22;11828;51.508;18.118;2022-12-29T02:04:58;19.90;32.70
23311;DHT22;11828;51.508;18.118;2022-12-29T02:07:29;19.90;32.70
23311;DHT22;11828;51.508;18.118;2022-12-29T02:09:55;20.00;32.80
23311;DHT22;11828;51.508;18.118;2022-12-29T02:12:23;20.10;32.60
23311;DHT22;11828;51.508;18.118;2022-12-29T02:14:53;20.20;32.60
23311;DHT22;11828;51.508;18.118;2022-12-29T02:31:57;20.60;32.00
23311;DHT22;11828;51.508;18.118;2022-12-29T02:38:13;21.00;31.70
23311;DHT22;11828;51.508;18.118;2022-12-29T02:40:55;20.90;31.50
23311;DHT22;11828;51.508;18.118;2022-12-29T02:43:37;21.00;31.20
23311;DHT22;11828;51.508;18.118;2022-12-29T02:49:09;21.00;31.00
23311;DHT22;11828;51.508;18.118;2022-12-29T02:54:58;21.00;31.00
23311;DHT22;11828;51.508;18.118;2022-12-29T02:59:58;21.00;30.90
23311;DHT22;11828;51.508;18.118;2022-12-29T03:03:19;21.20;30.70
23311;DHT22;11828;51.508;18.118;2022-12-29T03:06:05;21.30;30.50
23311;DHT22;11828;51.508;18.118;2022-12-29T03:09:06;21.40;30.50
23311;DHT22;11828;51.508;18.118;2022-12-29T03:15:10;21.20;30.40
23311;DHT22;11828;51.508;18.118;2022-12-29T03:20:58;21.30;30.40
23311;DHT22;11828;51.508;18.118;2022-12-29T03:23:29;21.40;30.40
23311;DHT22;11828;51.508;18.118;2022-12-29T03:25:59;21.30;30.30
23311;DHT22;11828;51.508;18.118;2022-12-29T03:28:54;21.40;30.40
23311;DHT22;11828;51.508;18.118;2022-12-29T03:31:23;21.40;30.50
23311;DHT22;11828;51.508;18.118;2022-12-29T03:33:51;21.40;30.40
23311;DHT22;11828;51.508;18.118;2022-12-29T03:36:30;21.20;30.40
23311;DHT22;11828;51.508;18.118;2022-12-29T03:39:07;21.20;30.50
23311;DHT22;11828;51.508;18.118;2022-12-29T03:41:38;21.10;30.70
23311;DHT22;11828;51.508;18.118;2022-12-29T03:44:07;21.10;30.80
23311;DHT22;11828;51.508;18.118;2022-12-29T03:46:33;21.00;30.80
23311;DHT22;11828;51.508;18.118;2022-12-29T03:49:00;21.00;30.90
23311;DHT22;11828;51.508;18.118;2022-12-29T03:51:26;21.20;30.80
23311;DHT22;11828;51.508;18.118;2022-12-29T03:53:52;21.10;30.80
23311;DHT22;11828;51.508;18.118;2022-12-29T03:56:18;21.00;31.00
23311;DHT22;11828;51.508;18.118;2022-12-29T03:58:44;21.10;31.00
23311;DHT22;11828;51.508;18.118;2022-12-29T04:01:10;21.10;30.80
23311;DHT22;11828;51.508;18.118;2022-12-29T04:03:37;21.20;30.80
23311;DHT22;11828;51.508;18.118;2022-12-29T04:06:03;21.10;30.90
23311;DHT22;11828;51.508;18.118;2022-12-29T04:08:29;20.90;31.00
23311;DHT22;11828;51.508;18.118;2022-12-29T04:10:55;21.10;31.20
23311;DHT22;11828;51.508;18.118;2022-12-29T04:13:22;20.90;31.00
23311;DHT22;11828;51.508;18.118;2022-12-29T04:15:47;21.10;31.10
23311;DHT22;11828;51.508;18.118;2022-12-29T04:18:14;21.20;31.10
23311;DHT22;11828;51.508;18.118;2022-12-29T04:20:41;21.40;30.80
23311;DHT22;11828;51.508;18.118;2022-12-29T04:23:38;21.40;31.20
23311;DHT22;11828;51.508;18.118;2022-12-29T04:26:05;21.60;30.50
23311;DHT22;11828;51.508;18.118;2022-12-29T04:28:34;21.50;30.40
23311;DHT22;11828;51.508;18.118;2022-12-29T04:31:02;21.50;30.40
23311;DHT22;11828;51.508;18.118;2022-12-29T04:33:29;21.50;30.40
23311;DHT22;11828;51.508;18.118;2022-12-29T04:35:55;21.40;30.50
23311;DHT22;11828;51.508;18.118;2022-12-29T04:38:22;21.50;30.30
23311;DHT22;11828;51.508;18.118;2022-12-29T04:40:50;21.60;31.10
23311;DHT22;11828;51.508;18.118;2022-12-29T04:43:17;21.70;30.40
23311;DHT22;11828;51.508;18.118;2022-12-29T04:45:45;21.80;30.20
23311;DHT22;11828;51.508;18.118;2022-12-29T04:48:12;21.90;30.00
23311;DHT22;11828;51.508;18.118;2022-12-29T04:50:40;22.20;29.90
23311;DHT22;11828;51.508;18.118;2022-12-29T04:53:07;22.20;29.70
23311;DHT22;11828;51.508;18.118;2022-12-29T04:55:33;22.30;29.60
23311;DHT22;11828;51.508;18.118;2022-12-29T04:57:59;22.50;29.60
23311;DHT22;11828;51.508;18.118;2022-12-29T05:00:25;22.70;29.40
23311;DHT22;11828;51.508;18.118;2022-12-29T05:02:51;22.70;29.20
23311;DHT22;11828;51.508;18.118;2022-12-29T05:05:18;22.70;29.20
23311;DHT22;11828;51.508;18.118;2022-12-29T05:07:44;22.80;29.20
23311;DHT22;11828;51.508;18.118;2022-12-29T05:10:11;22.80;29.60
23311;DHT22;11828;51.508;18.118;2022-12-29T05:12:37;22.70;29.10
23311;DHT22;11828;51.508;18.118;2022-12-29T05:15:08;22.80;29.20
23311;DHT22;11828;51.508;18.118;2022-12-29T05:17:35;22.90;29.00
23311;DHT22;11828;51.508;18.118;2022-12-29T05:20:02;23.00;28.90
23311;DHT22;11828;51.508;18.118;2022-12-29T05:22:30;23.00;29.00
23311;DHT22;11828;51.508;18.118;2022-12-29T05:24:56;22.90;28.80
23311;DHT22;11828;51.508;18.118;2022-12-29T05:27:22;22.90;28.80
23311;DHT22;11828;51.508;18.118;2022-12-29T05:29:48;22.80;28.90
23311;DHT22;11828;51.508;18.118;2022-12-29T05:32:15;23.00;28.80
23311;DHT22;11828;51.508;18.118;2022-12-29T05:34:41;23.00;28.70
23311;DHT22;11828;51.508;18.118;2022-12-29T05:37:07;23.10;28.50
23311;DHT22;11828;51.508;18.118;2022-12-29T05:39:33;23.00;28.60
23311;DHT22;11828;51.508;18.118;2022-12-29T05:41:59;22.90;28.50
23311;DHT22;11828;51.508;18.118;2022-12-29T05:44:25;22.80;28.50
23311;DHT22;11828;51.508;18.118;2022-12-29T05:46:52;22.80;28.60
23311;DHT22;11828;51.508;18.118;2022-12-29T05:49:18;22.60;28.20
23311;DHT22;11828;51.508;18.118;2022-12-29T05:51:44;22.60;28.60
23311;DHT22;11828;51.508;18.118;2022-12-29T05:54:10;22.60;28.80
23311;DHT22;11828;51.508;18.118;2022-12-29T05:56:36;22.40;33.30
23311;DHT22;11828;51.508;18.118;2022-12-29T06:01:29;21.80;48.60
23311;DHT22;11828;51.508;18.118;2022-12-29T06:06:22;20.80;29.50
23311;DHT22;11828;51.508;18.118;2022-12-29T06:08:48;20.70;30.30
23311;DHT22;11828;51.508;18.118;2022-12-29T06:11:14;20.70;30.80
23311;DHT22;11828;51.508;18.118;2022-12-29T06:13:40;20.80;30.60
23311;DHT22;11828;51.508;18.118;2022-12-29T06:16:06;21.20;30.50
23311;DHT22;11828;51.508;18.118;2022-12-29T06:18:32;21.30;30.80
23311;DHT22;11828;51.508;18.118;2022-12-29T06:21:04;21.80;29.90
23311;DHT22;11828;51.508;18.118;2022-12-29T06:23:31;22.00;29.50
23311;DHT22;11828;51.508;18.118;2022-12-29T06:25:57;22.20;29.40
23311;DHT22;11828;51.508;18.118;2022-12-29T06:28:23;22.40;29.20
23311;DHT22;11828;51.508;18.118;2022-12-29T06:30:50;22.50;29.10
23311;DHT22;11828;51.508;18.118;2022-12-29T06:33:16;22.50;28.90
23311;DHT22;11828;51.508;18.118;2022-12-29T06:35:43;22.70;28.90
23311;DHT22;11828;51.508;18.118;2022-12-29T06:38:09;22.70;28.80
23311;DHT22;11828;51.508;18.118;2022-12-29T06:40:35;22.60;28.80
23311;DHT22;11828;51.508;18.118;2022-12-29T06:43:01;22.40;29.00
23311;DHT22;11828;51.508;18.118;2022-12-29T06:45:27;22.20;29.00
23311;DHT22;11828;51.508;18.118;2022-12-29T06:47:53;22.00;29.30
23311;DHT22;11828;51.508;18.118;2022-12-29T06:50:19;22.00;29.50
23311;DHT22;11828;51.508;18.118;2022-12-29T06:53:39;21.30;29.40
23311;DHT22;11828;51.508;18.118;2022-12-29T06:56:05;21.30;29.50
23311;DHT22;11828;51.508;18.118;2022-12-29T06:58:31;21.10;30.10
23311;DHT22;11828;51.508;18.118;2022-12-29T07:00:58;20.90;30.50
23311;DHT22;11828;51.508;18.118;2022-12-29T07:03:24;21.00;30.60
23311;DHT22;11828;51.508;18.118;2022-12-29T07:05:51;21.30;30.50
23311;DHT22;11828;51.508;18.118;2022-12-29T07:08:17;21.30;30.40
23311;DHT22;11828;51.508;18.118;2022-12-29T07:10:43;21.70;29.70
23311;DHT22;11828;51.508;18.118;2022-12-29T07:13:10;21.60;30.00
23311;DHT22;11828;51.508;18.118;2022-12-29T07:15:36;21.70;29.90
23311;DHT22;11828;51.508;18.118;2022-12-29T07:18:03;21.70;30.00
23311;DHT22;11828;51.508;18.118;2022-12-29T07:20:30;21.90;29.90
23311;DHT22;11828;51.508;18.118;2022-12-29T07:22:57;21.80;29.80
23311;DHT22;11828;51.508;18.118;2022-12-29T07:25:24;21.90;29.80
23311;DHT22;11828;51.508;18.118;2022-12-29T07:27:50;22.00;29.70
23311;DHT22;11828;51.508;18.118;2022-12-29T07:30:16;21.90;29.70
23311;DHT22;11828;51.508;18.118;2022-12-29T07:32:43;22.00;29.80
23311;DHT22;11828;51.508;18.118;2022-12-29T07:35:09;22.10;29.70
23311;DHT22;11828;51.508;18.118;2022-12-29T07:37:35;22.10;29.60
23311;DHT22;11828;51.508;18.118;2022-12-29T07:40:02;22.10;29.40
23311;DHT22;11828;51.508;18.118;2022-12-29T07:42:29;22.00;29.50
23311;DHT22;11828;51.508;18.118;2022-12-29T07:44:56;22.20;29.30
23311;DHT22;11828;51.508;18.118;2022-12-29T07:47:22;22.10;29.40
23311;DHT22;11828;51.508;18.118;2022-12-29T07:49:49;22.30;29.60
23311;DHT22;11828;51.508;18.118;2022-12-29T07:52:15;22.40;29.50
23311;DHT22;11828;51.508;18.118;2022-12-29T07:54:41;22.40;29.40
23311;DHT22;11828;51.508;18.118;2022-12-29T07:57:08;22.30;29.30
23311;DHT22;11828;51.508;18.118;2022-12-29T07:59:34;22.30;29.30
23311;DHT22;11828;51.508;18.118;2022-12-29T08:02:00;22.30;29.40
23311;DHT22;11828;51.508;18.118;2022-12-29T08:04:27;22.40;29.40
23311;DHT22;11828;51.508;18.118;2022-12-29T08:06:53;22.40;29.30
23311;DHT22;11828;51.508;18.118;2022-12-29T08:09:19;22.40;29.40
23311;DHT22;11828;51.508;18.118;2022-12-29T08:11:45;22.50;29.40
23311;DHT22;11828;51.508;18.118;2022-12-29T08:14:12;22.40;29.40
23311;DHT22;11828;51.508;18.118;2022-12-29T08:16:38;22.50;29.20
23311;DHT22;11828;51.508;18.118;2022-12-29T08:19:05;22.40;29.20
23311;DHT22;11828;51.508;18.118;2022-12-29T08:21:31;22.30;29.20
23311;DHT22;11828;51.508;18.118;2022-12-29T08:23:58;22.40;29.30
23311;DHT22;11828;51.508;18.118;2022-12-29T08:26:24;22.40;29.50
23311;DHT22;11828;51.508;18.118;2022-12-29T08:28:54;22.50;29.50
23311;DHT22;11828;51.508;18.118;2022-12-29T08:31:21;22.70;29.80
23311;DHT22;11828;51.508;18.118;2022-12-29T08:33:48;22.80;29.10
23311;DHT22;11828;51.508;18.118;2022-12-29T08:36:15;22.70;29.10
23311;DHT22;11828;51.508;18.118;2022-12-29T08:38:41;22.80;29.00
23311;DHT22;11828;51.508;18.118;2022-12-29T08:41:07;22.80;29.10
23311;DHT22;11828;51.508;18.118;2022-12-29T08:43:34;22.80;29.00
23311;DHT22;11828;51.508;18.118;2022-12-29T08:46:00;22.90;28.90
23311;DHT22;11828;51.508;18.118;2022-12-29T08:48:27;23.20;28.70
23311;DHT22;11828;51.508;18.118;2022-12-29T08:50:53;23.50;28.60
23311;DHT22;11828;51.508;18.118;2022-12-29T08:53:19;23.60;28.40
23311;DHT22;11828;51.508;18.118;2022-12-29T08:55:46;23.60;28.30
23311;DHT22;11828;51.508;18.118;2022-12-29T08:58:22;23.80;28.20
23311;DHT22;11828;51.508;18.118;2022-12-29T09:00:48;23.80;27.90
23311;DHT22;11828;51.508;18.118;2022-12-29T09:03:14;23.80;28.10
23311;DHT22;11828;51.508;18.118;2022-12-29T09:05:40;23.90;28.10
23311;DHT22;11828;51.508;18.118;2022-12-29T09:08:06;24.00;27.90
23311;DHT22;11828;51.508;18.118;2022-12-29T09:10:33;24.10;28.40
23311;DHT22;11828;51.508;18.118;2022-12-29T09:12:59;24.30;27.90
23311;DHT22;11828;51.508;18.118;2022-12-29T09:15:25;24.20;27.60
23311;DHT22;11828;51.508;18.118;2022-12-29T09:17:51;24.20;27.50
23311;DHT22;11828;51.508;18.118;2022-12-29T09:20:19;24.30;27.60
23311;DHT22;11828;51.508;18.118;2022-12-29T09:22:46;24.40;27.60
23311;DHT22;11828;51.508;18.118;2022-12-29T09:25:13;24.50;27.50
23311;DHT22;11828;51.508;18.118;2022-12-29T09:27:40;24.60;27.50
23311;DHT22;11828;51.508;18.118;2022-12-29T09:30:08;24.80;27.10
23311;DHT22;11828;51.508;18.118;2022-12-29T09:32:36;24.90;26.90
23311;DHT22;11828;51.508;18.118;2022-12-29T09:35:02;24.90;27.00
23311;DHT22;11828;51.508;18.118;2022-12-29T09:37:29;24.80;27.00
23311;DHT22;11828;51.508;18.118;2022-12-29T09:39:55;24.90;27.10
23311;DHT22;11828;51.508;18.118;2022-12-29T09:42:29;25.00;27.10
23311;DHT22;11828;51.508;18.118;2022-12-29T09:48:32;24.80;27.00
23311;DHT22;11828;51.508;18.118;2022-12-29T09:51:05;24.80;27.20
23311;DHT22;11828;51.508;18.118;2022-12-29T09:53:43;24.80;27.10
23311;DHT22;11828;51.508;18.118;2022-12-29T09:56:16;24.80;27.20
23311;DHT22;11828;51.508;18.118;2022-12-29T10:01:33;24.90;27.10
23311;DHT22;11828;51.508;18.118;2022-12-29T10:04:03;24.90;27.10
23311;DHT22;11828;51.508;18.118;2022-12-29T10:09:26;24.80;27.00
23311;DHT22;11828;51.508;18.118;2022-12-29T10:12:30;24.80;27.10
23311;DHT22;11828;51.508;18.118;2022-12-29T10:23:40;24.80;27.40
23311;DHT22;11828;51.508;18.118;2022-12-29T10:26:18;24.70;27.40
23311;DHT22;11828;51.508;18.118;2022-12-29T10:28:53;24.70;27.60
23311;DHT22;11828;51.508;18.118;2022-12-29T10:31:25;24.60;27.50
23311;DHT22;11828;51.508;18.118;2022-12-29T10:34:02;24.70;27.60
23311;DHT22;11828;51.508;18.118;2022-12-29T10:36:40;24.60;27.60
23311;DHT22;11828;51.508;18.118;2022-12-29T10:40:00;24.60;27.70
23311;DHT22;11828;51.508;18.118;2022-12-29T10:42:28;24.80;27.70
23311;DHT22;11828;51.508;18.118;2022-12-29T10:44:55;24.80;27.80
23311;DHT22;11828;51.508;18.118;2022-12-29T10:47:28;24.90;27.50
23311;DHT22;11828;51.508;18.118;2022-12-29T10:50:00;24.90;27.60
23311;DHT22;11828;51.508;18.118;2022-12-29T10:52:28;25.00;27.60
23311;DHT22;11828;51.508;18.118;2022-12-29T10:55:03;25.20;27.50
23311;DHT22;11828;51.508;18.118;2022-12-29T10:57:41;25.20;27.30
23311;DHT22;11828;51.508;18.118;2022-12-29T11:00:13;25.30;27.30
23311;DHT22;11828;51.508;18.118;2022-12-29T11:03:10;25.50;27.30
23311;DHT22;11828;51.508;18.118;2022-12-29T11:08:15;25.60;27.20
23311;DHT22;11828;51.508;18.118;2022-12-29T11:10:45;25.60;27.10
23311;DHT22;11828;51.508;18.118;2022-12-29T11:13:30;25.50;27.00
23311;DHT22;11828;51.508;18.118;2022-12-29T11:15:57;25.60;27.10
23311;DHT22;11828;51.508;18.118;2022-12-29T11:18:35;25.70;26.80
23311;DHT22;11828;51.508;18.118;2022-12-29T11:21:23;25.80;26.80
23311;DHT22;11828;51.508;18.118;2022-12-29T11:24:18;25.90;26.90
23311;DHT22;11828;51.508;18.118;2022-12-29T11:26:44;25.90;26.60
23311;DHT22;11828;51.508;18.118;2022-12-29T11:31:47;26.00;26.70
23311;DHT22;11828;51.508;18.118;2022-12-29T11:34:30;26.00;26.40
23311;DHT22;11828;51.508;18.118;2022-12-29T11:37:10;26.00;26.70
23311;DHT22;11828;51.508;18.118;2022-12-29T11:42:20;25.70;26.90
23311;DHT22;11828;51.508;18.118;2022-12-29T11:45:16;25.80;26.90
23311;DHT22;11828;51.508;18.118;2022-12-29T11:47:49;25.80;27.00
23311;DHT22;11828;51.508;18.118;2022-12-29T11:50:39;25.70;27.40
23311;DHT22;11828;51.508;18.118;2022-12-29T11:53:28;25.80;27.00
23311;DHT22;11828;51.508;18.118;2022-12-29T11:56:12;25.90;26.90
23311;DHT22;11828;51.508;18.118;2022-12-29T11:58:43;25.80;27.00
23311;DHT22;11828;51.508;18.118;2022-12-29T12:01:23;25.90;27.00
23311;DHT22;11828;51.508;18.118;2022-12-29T12:04:15;25.80;27.10
23311;DHT22;11828;51.508;18.118;2022-12-29T12:07:10;25.80;27.10
23311;DHT22;11828;51.508;18.118;2022-12-29T12:09:49;25.90;27.00
23311;DHT22;11828;51.508;18.118;2022-12-29T12:12:33;26.00;26.90
23311;DHT22;11828;51.508;18.118;2022-12-29T12:15:03;26.30;26.90
23311;DHT22;11828;51.508;18.118;2022-12-29T12:20:54;26.40;26.80
23311;DHT22;11828;51.508;18.118;2022-12-29T12:23:42;26.70;26.60
23311;DHT22;11828;51.508;18.118;2022-12-29T12:26:42;26.90;26.20
23311;DHT22;11828;51.508;18.118;2022-12-29T12:29:20;27.30;26.20
23311;DHT22;11828;51.508;18.118;2022-12-29T12:32:09;27.60;25.70
23311;DHT22;11828;51.508;18.118;2022-12-29T12:34:49;27.70;25.50
23311;DHT22;11828;51.508;18.118;2022-12-29T12:40:34;27.50;25.60
23311;DHT22;11828;51.508;18.118;2022-12-29T13:01:30;26.70;26.40
23311;DHT22;11828;51.508;18.118;2022-12-29T13:07:21;26.50;26.60
23311;DHT22;11828;51.508;18.118;2022-12-29T13:16:14;25.90;27.20
23311;DHT22;11828;51.508;18.118;2022-12-29T13:22:07;25.80;27.60
23311;DHT22;11828;51.508;18.118;2022-12-29T13:27:19;25.70;27.80
23311;DHT22;11828;51.508;18.118;2022-12-29T13:30:34;25.50;28.00
23311;DHT22;11828;51.508;18.118;2022-12-29T13:41:55;25.60;28.20
23311;DHT22;11828;51.508;18.118;2022-12-29T13:44:35;25.30;28.20
23311;DHT22;11828;51.508;18.118;2022-12-29T13:47:38;25.30;28.40
23311;DHT22;11828;51.508;18.118;2022-12-29T13:50:18;25.30;28.40
23311;DHT22;11828;51.508;18.118;2022-12-29T13:52:50;25.40;28.40
23311;DHT22;11828;51.508;18.118;2022-12-29T13:55:35;25.30;28.50
23311;DHT22;11828;51.508;18.118;2022-12-29T13:58:05;25.00;28.80
23311;DHT22;11828;51.508;18.118;2022-12-29T14:01:08;25.10;28.90
23311;DHT22;11828;51.508;18.118;2022-12-29T14:03:58;25.00;28.90
23311;DHT22;11828;51.508;18.118;2022-12-29T14:06:28;24.90;29.00
23311;DHT22;11828;51.508;18.118;2022-12-29T14:09:02;24.90;29.10
23311;DHT22;11828;51.508;18.118;2022-12-29T14:11:38;25.00;29.10
23311;DHT22;11828;51.508;18.118;2022-12-29T14:14:24;24.80;29.10
23311;DHT22;11828;51.508;18.118;2022-12-29T14:16:52;24.50;29.20
23311;DHT22;11828;51.508;18.118;2022-12-29T14:19:26;24.60;29.50
23311;DHT22;11828;51.508;18.118;2022-12-29T14:21:57;24.30;29.50
23311;DHT22;11828;51.508;18.118;2022-12-29T14:34:57;23.80;30.10
23311;DHT22;11828;51.508;18.118;2022-12-29T14:37:47;23.70;30.00
23311;DHT22;11828;51.508;18.118;2022-12-29T14:40:24;23.80;30.10
23311;DHT22;11828;51.508;18.118;2022-12-29T14:42:54;23.70;30.20
23311;DHT22;11828;51.508;18.118;2022-12-29T14:45:28;23.70;30.20
23311;DHT22;11828;51.508;18.118;2022-12-29T14:47:55;23.50;30.40
23311;DHT22;11828;51.508;18.118;2022-12-29T14:52:58;23.40;30.50
23311;DHT22;11828;51.508;18.118;2022-12-29T14:55:39;23.40;30.70
23311;DHT22;11828;51.508;18.118;2022-12-29T14:58:16;23.40;30.50
23311;DHT22;11828;51.508;18.118;2022-12-29T15:01:00;23.10;30.80
23311;DHT22;11828;51.508;18.118;2022-12-29T15:03:32;23.30;30.70
23311;DHT22;11828;51.508;18.118;2022-12-29T15:06:08;23.30;30.60
23311;DHT22;11828;51.508;18.118;2022-12-29T15:08:42;23.20;30.60
23311;DHT22;11828;51.508;18.118;2022-12-29T15:11:15;23.30;30.60
23311;DHT22;11828;51.508;18.118;2022-12-29T15:13:45;23.20;30.60
23311;DHT22;11828;51.508;18.118;2022-12-29T15:16:33;23.40;30.50
23311;DHT22;11828;51.508;18.118;2022-12-29T15:19:02;23.20;30.60
23311;DHT22;11828;51.508;18.118;2022-12-29T15:21:32;23.20;30.50
23311;DHT22;11828;51.508;18.118;2022-12-29T15:24:01;23.20;30.70
23311;DHT22;11828;51.508;18.118;2022-12-29T15:26:42;23.10;30.60
23311;DHT22;11828;51.508;18.118;2022-12-29T15:29:37;23.20;30.70
23311;DHT22;11828;51.508;18.118;2022-12-29T15:32:23;23.10;30.80
23311;DHT22;11828;51.508;18.118;2022-12-29T15:34:53;23.00;31.00
23311;DHT22;11828;51.508;18.118;2022-12-29T15:37:26;23.00;30.90
23311;DHT22;11828;51.508;18.118;2022-12-29T15:39:55;23.10;30.80
23311;DHT22;11828;51.508;18.118;2022-12-29T15:43:04;23.20;30.70
23311;DHT22;11828;51.508;18.118;2022-12-29T15:45:40;23.20;31.00
23311;DHT22;11828;51.508;18.118;2022-12-29T15:48:18;23.30;30.60
23311;DHT22;11828;51.508;18.118;2022-12-29T15:50:45;23.30;30.60
23311;DHT22;11828;51.508;18.118;2022-12-29T15:53:37;23.20;30.70
23311;DHT22;11828;51.508;18.118;2022-12-29T15:56:08;23.00;30.80
23311;DHT22;11828;51.508;18.118;2022-12-29T15:58:51;23.00;31.10
23311;DHT22;11828;51.508;18.118;2022-12-29T16:01:32;23.10;31.20
23311;DHT22;11828;51.508;18.118;2022-12-29T16:04:09;23.10;31.20
23311;DHT22;11828;51.508;18.118;2022-12-29T16:06:44;23.10;31.00
23311;DHT22;11828;51.508;18.118;2022-12-29T16:09:19;23.30;31.00
23311;DHT22;11828;51.508;18.118;2022-12-29T16:12:02;23.20;31.00
23311;DHT22;11828;51.508;18.118;2022-12-29T16:14:41;23.30;31.00
23311;DHT22;11828;51.508;18.118;2022-12-29T16:17:13;23.30;31.00
23311;DHT22;11828;51.508;18.118;2022-12-29T16:19:51;23.30;31.10
23311;DHT22;11828;51.508;18.118;2022-12-29T16:24:57;23.30;31.00
23311;DHT22;11828;51.508;18.118;2022-12-29T16:27:32;23.40;31.00
23311;DHT22;11828;51.508;18.118;2022-12-29T16:30:16;23.50;31.00
23311;DHT22;11828;51.508;18.118;2022-12-29T16:32:49;23.50;30.90
23311;DHT22;11828;51.508;18.118;2022-12-29T16:35:17;23.40;31.00
23311;DHT22;11828;51.508;18.118;2022-12-29T16:38:15;23.50;30.90
23311;DHT22;11828;51.508;18.118;2022-12-29T16:40:55;23.40;31.10
23311;DHT22;11828;51.508;18.118;2022-12-29T16:43:30;23.60;31.00
23311;DHT22;11828;51.508;18.118;2022-12-29T16:48:30;23.50;31.10
23311;DHT22;11828;51.508;18.118;2022-12-29T16:51:16;23.50;31.10
23311;DHT22;11828;51.508;18.118;2022-12-29T16:53:53;23.30;31.10
23311;DHT22;11828;51.508;18.118;2022-12-29T16:56:23;23.20;31.30
23311;DHT22;11828;51.508;18.118;2022-12-29T16:59:03;23.20;31.30
23311;DHT22;11828;51.508;18.118;2022-12-29T17:01:36;23.40;31.20
23311;DHT22;11828;51.508;18.118;2022-12-29T17:04:08;23.40;31.00
23311;DHT22;11828;51.508;18.118;2022-12-29T17:06:36;23.50;30.90
23311;DHT22;11828;51.508;18.118;2022-12-29T17:09:20;23.40;30.90
23311;DHT22;11828;51.508;18.118;2022-12-29T17:11:55;23.40;31.00
23311;DHT22;11828;51.508;18.118;2022-12-29T17:17:04;23.30;31.00
23311;DHT22;11828;51.508;18.118;2022-12-29T17:19:36;23.30;30.90
23311;DHT22;11828;51.508;18.118;2022-12-29T17:22:09;23.40;30.80
23311;DHT22;11828;51.508;18.118;2022-12-29T17:24:39;23.40;30.80
23311;DHT22;11828;51.508;18.118;2022-12-29T17:27:05;23.30;30.80
23311;DHT22;11828;51.508;18.118;2022-12-29T17:29:39;23.40;30.90
23311;DHT22;11828;51.508;18.118;2022-12-29T17:32:12;23.30;30.80
23311;DHT22;11828;51.508;18.118;2022-12-29T17:34:39;23.20;31.00
23311;DHT22;11828;51.508;18.118;2022-12-29T17:37:27;23.20;31.00
23311;DHT22;11828;51.508;18.118;2022-12-29T17:40:04;23.20;31.00
23311;DHT22;11828;51.508;18.118;2022-12-29T17:42:32;23.30;30.80
23311;DHT22;11828;51.508;18.118;2022-12-29T17:45:01;23.40;30.80
23311;DHT22;11828;51.508;18.118;2022-12-29T17:47:27;23.60;30.50
23311;DHT22;11828;51.508;18.118;2022-12-29T17:49:54;23.60;30.40
23311;DHT22;11828;51.508;18.118;2022-12-29T17:52:20;23.50;30.30
23311;DHT22;11828;51.508;18.118;2022-12-29T17:54:50;23.50;30.50
23311;DHT22;11828;51.508;18.118;2022-12-29T17:57:19;23.40;30.80
23311;DHT22;11828;51.508;18.118;2022-12-29T17:59:46;23.40;30.40
23311;DHT22;11828;51.508;18.118;2022-12-29T18:02:31;23.40;30.70